createdAt,value
2018-07-25T00:00:01.309Z,15.00
2018-07-25T00:02:30.777Z,16.30
2018-07-25T00:05:00.823Z,15.00
2018-07-25T00:07:30.755Z,17.50
2018-07-25T00:10:00.316Z,15.23
2018-07-25T00:12:29.952Z,14.43
2018-07-25T00:14:59.626Z,15.97
2018-07-25T00:17:29.496Z,20.93
2018-07-25T00:19:59.055Z,14.03
2018-07-25T00:22:28.556Z,15.00
2018-07-25T00:24:58.130Z,21.90
2018-07-25T00:27:27.613Z,16.43
2018-07-25T00:29:57.190Z,16.03
2018-07-25T00:32:26.979Z,16.50
2018-07-25T00:34:57.785Z,13.70
2018-07-25T00:40:22.086Z,19.10
2018-07-25T00:42:51.229Z,17.53
2018-07-25T00:45:20.541Z,18.63
2018-07-25T00:47:50.427Z,16.57
2018-07-25T00:50:19.878Z,14.97
2018-07-25T00:52:49.835Z,16.07
2018-07-25T00:55:19.348Z,14.47
2018-07-25T00:57:48.769Z,17.10
2018-07-25T01:00:18.724Z,18.20
2018-07-25T01:02:48.747Z,17.53
2018-07-25T01:05:18.644Z,15.47
2018-07-25T01:07:47.991Z,18.20
2018-07-25T01:10:17.627Z,17.37
2018-07-25T01:12:47.020Z,14.80
2018-07-25T01:15:16.371Z,16.27
2018-07-25T01:17:45.674Z,15.30
2018-07-25T01:20:15.220Z,16.60
2018-07-25T01:22:44.591Z,18.80
2018-07-25T01:25:13.860Z,18.73
2018-07-25T01:27:43.210Z,16.00
2018-07-25T01:30:12.589Z,17.40
2018-07-25T01:32:41.868Z,17.50
2018-07-25T01:35:11.192Z,17.03
2018-07-25T01:37:40.647Z,19.63
2018-07-25T01:40:10.053Z,20.73
2018-07-25T01:42:39.326Z,18.00
2018-07-25T01:45:08.727Z,17.27
2018-07-25T01:47:38.049Z,19.30
2018-07-25T01:50:07.863Z,16.53
2018-07-25T01:52:37.371Z,15.60
2018-07-25T01:55:07.284Z,18.20
2018-07-25T01:57:36.782Z,18.50
2018-07-25T02:00:06.112Z,21.07
2018-07-25T02:02:35.415Z,16.57
2018-07-25T02:05:04.887Z,20.17
2018-07-25T02:07:34.136Z,17.73
2018-07-25T02:10:03.430Z,18.20
2018-07-25T02:12:32.795Z,19.00
2018-07-25T02:15:02.228Z,20.50
2018-07-25T02:17:31.562Z,23.20
2018-07-25T02:20:00.963Z,20.13
2018-07-25T02:22:30.312Z,20.10
2018-07-25T02:24:59.769Z,21.20
2018-07-25T02:27:29.041Z,20.43
2018-07-25T02:29:58.273Z,18.70
2018-07-25T02:32:27.530Z,17.63
2018-07-25T02:34:56.873Z,20.43
2018-07-25T02:37:26.257Z,20.10
2018-07-25T02:39:55.597Z,16.53
2018-07-25T02:42:25.100Z,21.80
2018-07-25T02:44:54.562Z,20.13
2018-07-25T02:47:28.565Z,24.87
2018-07-25T02:49:57.908Z,19.93
2018-07-25T02:52:27.264Z,26.63
2018-07-25T02:54:56.852Z,18.63
2018-07-25T02:57:26.288Z,18.63
2018-07-25T02:59:55.819Z,18.80
2018-07-25T03:02:25.355Z,24.40
2018-07-25T03:04:54.876Z,20.37
2018-07-25T03:07:24.741Z,19.03
2018-07-25T03:09:54.193Z,22.83
2018-07-25T03:12:23.650Z,22.97
2018-07-25T03:14:52.825Z,17.67
2018-07-25T03:17:22.096Z,22.07
2018-07-25T03:19:51.852Z,22.93
2018-07-25T03:22:21.080Z,21.20
2018-07-25T03:24:50.252Z,22.27
2018-07-25T03:27:19.647Z,21.33
2018-07-25T03:29:48.961Z,19.83
2018-07-25T03:32:18.400Z,19.20
2018-07-25T03:34:47.847Z,21.17
2018-07-25T03:37:17.152Z,19.93
2018-07-25T03:39:46.451Z,22.47
2018-07-25T03:42:15.636Z,20.10
2018-07-25T03:44:45.089Z,24.77
2018-07-25T03:47:14.499Z,24.80
2018-07-25T03:49:43.843Z,19.27
2018-07-25T03:52:13.365Z,19.40
2018-07-25T03:54:42.888Z,20.30
2018-07-25T03:57:12.136Z,23.20
2018-07-25T03:59:41.437Z,21.77
2018-07-25T04:02:10.844Z,25.87
2018-07-25T04:04:40.212Z,23.73
2018-07-25T04:07:09.628Z,23.10
2018-07-25T04:09:39.111Z,20.87
2018-07-25T04:12:08.687Z,28.70
2018-07-25T04:14:38.044Z,25.83
2018-07-25T04:17:07.724Z,25.13
2018-07-25T04:19:37.221Z,28.90
2018-07-25T04:22:06.552Z,24.57
2018-07-25T04:24:36.156Z,26.00
2018-07-25T04:27:05.555Z,25.87
2018-07-25T04:29:34.863Z,23.80
2018-07-25T04:32:03.982Z,20.23
2018-07-25T04:34:32.922Z,23.43
2018-07-25T04:37:02.099Z,23.00
2018-07-25T04:39:31.893Z,23.33
2018-07-25T04:42:01.245Z,21.70
2018-07-25T04:44:30.713Z,23.30
2018-07-25T04:47:00.169Z,23.53
2018-07-25T04:49:29.647Z,25.90
2018-07-25T04:51:58.960Z,21.40
2018-07-25T04:54:28.360Z,20.97
2018-07-25T04:56:57.797Z,20.07
2018-07-25T04:59:27.235Z,21.37
2018-07-25T05:01:56.659Z,23.20
2018-07-25T05:04:26.203Z,19.80
2018-07-25T05:06:55.776Z,19.30
2018-07-25T05:09:25.221Z,20.20
2018-07-25T05:11:54.833Z,19.63
2018-07-25T05:14:24.236Z,21.13
2018-07-25T05:16:54.311Z,19.50
2018-07-25T05:19:23.823Z,21.20
2018-07-25T05:21:53.418Z,19.63
2018-07-25T05:24:22.683Z,23.53
2018-07-25T05:26:52.797Z,27.00
2018-07-25T05:29:22.441Z,21.50
2018-07-25T05:31:51.740Z,17.27
2018-07-25T05:34:21.037Z,18.40
2018-07-25T05:36:50.285Z,21.20
2018-07-25T05:39:19.595Z,17.73
2018-07-25T05:41:48.947Z,22.30
2018-07-25T05:44:22.447Z,21.90
2018-07-25T05:46:51.943Z,29.37
2018-07-25T05:49:21.891Z,18.33
2018-07-25T05:51:51.764Z,18.17
2018-07-25T05:54:21.136Z,19.37
2018-07-25T05:56:50.670Z,21.33
2018-07-25T05:59:20.107Z,19.30
2018-07-25T06:01:49.456Z,19.60
2018-07-25T06:04:19.002Z,18.80
2018-07-25T06:06:48.325Z,19.33
2018-07-25T06:09:17.675Z,19.90
2018-07-25T06:11:47.347Z,18.77
2018-07-25T06:14:16.808Z,18.40
2018-07-25T06:16:46.257Z,21.43
2018-07-25T06:19:15.553Z,24.20
2018-07-25T06:21:45.213Z,23.73
2018-07-25T06:24:14.552Z,21.57
2018-07-25T06:26:44.216Z,21.67
2018-07-25T06:29:13.483Z,20.20
2018-07-25T06:31:43.162Z,20.23
2018-07-25T06:34:12.456Z,19.50
2018-07-25T06:36:41.966Z,20.83
2018-07-25T06:39:12.887Z,21.70
2018-07-25T06:41:42.244Z,18.90
2018-07-25T06:44:11.559Z,23.10
2018-07-25T06:46:40.886Z,21.60
2018-07-25T06:49:10.140Z,20.00
2018-07-25T06:51:39.395Z,17.53
2018-07-25T06:54:08.520Z,19.87
2018-07-25T06:56:37.664Z,16.67
2018-07-25T06:59:07.079Z,15.83
2018-07-25T07:01:36.374Z,17.43
2018-07-25T07:04:05.695Z,14.80
2018-07-25T07:06:34.662Z,15.60
2018-07-25T07:09:05.346Z,14.63
2018-07-25T07:11:34.601Z,14.30
2018-07-25T07:14:03.913Z,18.87
2018-07-25T07:16:33.146Z,14.37
2018-07-25T07:19:02.433Z,16.50
2018-07-25T07:21:31.848Z,16.40
2018-07-25T07:24:01.293Z,16.43
2018-07-25T07:26:30.629Z,14.33
2018-07-25T07:29:00.067Z,13.30
2018-07-25T07:31:29.438Z,16.00
2018-07-25T07:33:58.649Z,13.93
2018-07-25T07:36:27.915Z,13.73
2018-07-25T07:38:57.420Z,14.20
2018-07-25T07:41:26.645Z,18.80
2018-07-25T07:43:56.007Z,13.40
2018-07-25T07:46:25.264Z,14.53
2018-07-25T07:48:54.676Z,13.77
2018-07-25T07:51:24.039Z,14.53
2018-07-25T07:53:53.646Z,13.00
2018-07-25T07:56:23.234Z,12.50
2018-07-25T07:58:52.582Z,13.77
2018-07-25T08:01:21.878Z,18.47
2018-07-25T08:03:51.100Z,16.93
2018-07-25T08:06:20.497Z,14.03
2018-07-25T08:08:50.366Z,14.93
2018-07-25T08:11:21.031Z,12.70
2018-07-25T08:13:50.920Z,16.20
2018-07-25T08:16:20.434Z,14.90
2018-07-25T08:18:49.505Z,14.70
2018-07-25T08:21:18.718Z,13.03
2018-07-25T08:23:48.063Z,17.63
2018-07-25T08:26:17.415Z,15.30
2018-07-25T08:28:46.685Z,16.13
2018-07-25T08:31:16.052Z,17.47
2018-07-25T08:33:45.320Z,12.40
2018-07-25T08:36:14.846Z,16.03
2018-07-25T08:38:44.860Z,13.00
2018-07-25T08:41:14.319Z,13.43
2018-07-25T08:43:43.508Z,15.63
2018-07-25T08:46:13.375Z,17.13
2018-07-25T08:48:42.641Z,12.90
2018-07-25T08:51:11.916Z,13.90
2018-07-25T08:53:41.153Z,11.20
2018-07-25T08:56:10.425Z,13.93
2018-07-25T08:58:39.651Z,13.50
2018-07-25T09:01:08.981Z,20.47
2018-07-25T09:03:38.212Z,13.57
2018-07-25T09:06:07.143Z,13.30
2018-07-25T09:08:36.449Z,15.27
2018-07-25T09:11:05.862Z,16.10
2018-07-25T09:13:35.121Z,13.63
2018-07-25T09:16:04.416Z,14.90
2018-07-25T09:18:33.253Z,15.73
2018-07-25T09:21:02.613Z,12.37
2018-07-25T09:23:31.952Z,16.10
2018-07-25T09:26:01.270Z,12.93
2018-07-25T09:28:30.480Z,13.40
2018-07-25T09:30:59.685Z,11.30
2018-07-25T09:33:29.041Z,13.03
2018-07-25T09:35:58.284Z,13.10
2018-07-25T09:38:28.141Z,12.20
2018-07-25T09:40:57.620Z,15.80
2018-07-25T09:43:26.940Z,17.63
2018-07-25T09:45:56.373Z,11.37
2018-07-25T09:48:26.168Z,13.67
2018-07-25T09:50:55.748Z,18.47
2018-07-25T09:53:25.393Z,18.83
2018-07-25T09:55:54.771Z,15.47
2018-07-25T09:58:24.045Z,17.57
2018-07-25T10:00:53.270Z,11.63
2018-07-25T10:03:22.644Z,15.50
2018-07-25T10:05:52.018Z,13.77
2018-07-25T10:08:21.227Z,11.73
2018-07-25T10:10:50.453Z,10.80
2018-07-25T10:13:19.701Z,12.97
2018-07-25T10:15:49.323Z,10.43
2018-07-25T10:18:18.651Z,10.80
2018-07-25T10:20:48.003Z,10.50
2018-07-25T10:23:17.284Z,10.40
2018-07-25T10:25:46.555Z,10.50
2018-07-25T10:28:15.856Z,10.20
2018-07-25T10:30:45.206Z,8.10
2018-07-25T10:33:14.422Z,9.10
2018-07-25T10:35:43.669Z,9.83
2018-07-25T10:38:13.020Z,8.93
2018-07-25T10:40:42.374Z,8.20
2018-07-25T10:43:11.693Z,8.43
2018-07-25T10:45:41.012Z,8.90
2018-07-25T10:48:10.548Z,13.10
2018-07-25T10:50:40.430Z,10.17
2018-07-25T10:53:09.730Z,11.57
2018-07-25T10:55:39.119Z,12.10
2018-07-25T10:58:08.558Z,9.43
2018-07-25T11:00:38.680Z,7.50
2018-07-25T11:03:08.001Z,9.73
2018-07-25T11:05:37.315Z,8.10
2018-07-25T11:08:06.798Z,8.97
2018-07-25T11:10:36.400Z,8.30
2018-07-25T11:13:05.849Z,8.10
2018-07-25T11:15:35.319Z,7.73
2018-07-25T11:18:04.656Z,8.00
2018-07-25T11:20:33.867Z,9.80
2018-07-25T11:23:03.098Z,11.47
2018-07-25T11:25:32.360Z,7.90
2018-07-25T11:28:01.578Z,8.10
2018-07-25T11:30:31.085Z,9.40
2018-07-25T11:33:00.317Z,8.00
2018-07-25T11:35:29.631Z,8.23
2018-07-25T11:37:59.122Z,8.07
2018-07-25T11:40:28.024Z,9.50
2018-07-25T11:42:57.078Z,7.37
2018-07-25T11:45:26.342Z,8.60
2018-07-25T11:47:55.644Z,6.87
2018-07-25T11:50:24.951Z,8.73
2018-07-25T11:52:54.307Z,7.80
2018-07-25T11:55:23.719Z,6.50
2018-07-25T11:57:52.886Z,6.70
2018-07-25T12:00:22.117Z,6.83
2018-07-25T12:02:51.667Z,7.90
2018-07-25T12:05:20.832Z,7.77
2018-07-25T12:07:50.094Z,7.70
2018-07-25T12:10:19.317Z,8.00
2018-07-25T12:12:48.627Z,9.00
2018-07-25T12:15:17.885Z,8.27
2018-07-25T12:17:47.036Z,7.57
2018-07-25T12:20:16.773Z,7.80
2018-07-25T12:22:46.000Z,8.00
2018-07-25T12:25:15.420Z,8.93
2018-07-25T12:27:44.604Z,10.57
2018-07-25T12:30:13.870Z,9.90
2018-07-25T12:32:43.322Z,8.03
2018-07-25T12:35:12.533Z,10.83
2018-07-25T12:37:41.809Z,7.50
2018-07-25T12:40:11.003Z,8.17
2018-07-25T12:42:40.596Z,8.47
2018-07-25T12:45:10.245Z,7.27
2018-07-25T12:47:39.532Z,7.57
2018-07-25T12:50:08.928Z,6.83
2018-07-25T12:52:38.316Z,8.30
2018-07-25T12:55:07.624Z,8.60
2018-07-25T12:57:37.143Z,6.93
2018-07-25T13:00:07.619Z,7.77
2018-07-25T13:02:36.869Z,9.33
2018-07-25T13:05:06.741Z,8.90
2018-07-25T13:07:35.928Z,8.43
2018-07-25T13:10:11.554Z,7.10
2018-07-25T13:12:40.989Z,9.10
2018-07-25T13:15:10.209Z,10.40
2018-07-25T13:17:41.556Z,13.70
2018-07-25T13:20:11.144Z,14.43
2018-07-25T13:22:41.050Z,12.17
2018-07-25T13:25:13.072Z,9.50
2018-07-25T13:27:42.719Z,11.17
2018-07-25T13:30:12.017Z,9.40
2018-07-25T13:32:41.768Z,10.57
2018-07-25T13:35:11.016Z,9.87
2018-07-25T13:37:40.252Z,10.13
2018-07-25T13:40:09.509Z,9.00
2018-07-25T13:42:39.071Z,11.33
2018-07-25T13:45:08.376Z,9.40
2018-07-25T13:47:37.764Z,17.73
2018-07-25T13:50:07.102Z,13.13
2018-07-25T13:52:36.273Z,9.57
2018-07-25T13:55:05.535Z,14.60
2018-07-25T13:57:34.792Z,11.73
2018-07-25T14:00:04.317Z,10.27
2018-07-25T14:02:33.487Z,10.07
2018-07-25T14:05:03.893Z,15.77
2018-07-25T14:07:33.206Z,18.43
2018-07-25T14:10:02.504Z,10.40
2018-07-25T14:12:31.668Z,14.63
2018-07-25T14:15:00.959Z,9.70
2018-07-25T14:17:30.192Z,11.50
2018-07-25T14:19:59.367Z,10.10
2018-07-25T14:22:28.575Z,12.57
2018-07-25T14:24:57.821Z,7.90
2018-07-25T14:27:27.009Z,9.53
2018-07-25T14:29:56.201Z,9.70
2018-07-25T14:32:25.375Z,8.43
2018-07-25T14:34:54.633Z,8.23
2018-07-25T14:37:23.949Z,9.63
2018-07-25T14:39:53.249Z,10.23
2018-07-25T14:42:22.372Z,9.80
2018-07-25T14:44:51.578Z,10.77
2018-07-25T14:47:20.829Z,10.37
2018-07-25T14:49:49.730Z,8.93
2018-07-25T14:52:18.834Z,15.00
2018-07-25T14:54:48.049Z,7.80
2018-07-25T14:57:17.304Z,7.97
2018-07-25T14:59:46.483Z,8.37
2018-07-25T15:02:15.970Z,12.50
2018-07-25T15:04:45.270Z,9.23
2018-07-25T15:07:14.529Z,7.40
2018-07-25T15:09:43.814Z,9.67
2018-07-25T15:12:13.138Z,12.23
2018-07-25T15:14:42.421Z,10.17
2018-07-25T15:17:11.816Z,9.87
2018-07-25T15:19:40.730Z,8.10
2018-07-25T15:22:10.136Z,6.97
2018-07-25T15:24:39.736Z,6.67
2018-07-25T15:27:09.143Z,7.37
2018-07-25T15:29:38.440Z,5.93
2018-07-25T15:32:07.895Z,6.50
2018-07-25T15:34:37.191Z,6.00
2018-07-25T15:37:06.595Z,7.73
2018-07-25T15:39:36.004Z,9.53
2018-07-25T15:42:05.405Z,9.60
2018-07-25T15:44:34.827Z,8.27
2018-07-25T15:47:04.248Z,6.20
2018-07-25T15:49:33.575Z,6.23
2018-07-25T15:52:03.013Z,7.87
2018-07-25T15:54:32.315Z,10.07
2018-07-25T15:57:01.655Z,7.20
2018-07-25T15:59:31.079Z,8.63
2018-07-25T16:02:00.580Z,6.10
2018-07-25T16:04:29.862Z,6.87
2018-07-25T16:06:59.453Z,7.30
2018-07-25T16:09:28.772Z,7.83
2018-07-25T16:11:58.153Z,11.30
2018-07-25T16:14:27.514Z,11.80
2018-07-25T16:16:56.896Z,8.87
2018-07-25T16:19:25.868Z,8.27
2018-07-25T16:21:54.988Z,8.30
2018-07-25T16:24:24.416Z,10.47
2018-07-25T16:26:53.638Z,6.83
2018-07-25T16:29:22.998Z,8.73
2018-07-25T16:31:52.510Z,6.33
2018-07-25T16:34:21.810Z,10.20
2018-07-25T16:36:51.176Z,21.43
2018-07-25T16:39:20.560Z,17.10
2018-07-25T16:41:50.037Z,11.67
2018-07-25T16:44:19.349Z,10.30
2018-07-25T16:46:48.866Z,16.23
2018-07-25T16:49:18.240Z,25.37
2018-07-25T16:51:47.630Z,11.90
2018-07-25T16:54:17.065Z,16.43
2018-07-25T16:56:46.343Z,17.73
2018-07-25T16:59:15.874Z,8.10
2018-07-25T17:01:45.259Z,9.00
2018-07-25T17:04:14.862Z,10.33
2018-07-25T17:06:44.208Z,8.07
2018-07-25T17:09:13.660Z,9.73
2018-07-25T17:11:43.186Z,8.63
2018-07-25T17:14:12.817Z,7.97
2018-07-25T17:16:42.291Z,11.93
2018-07-25T17:19:11.736Z,10.40
2018-07-25T17:21:41.595Z,9.43
2018-07-25T17:24:11.120Z,9.50
2018-07-25T17:26:40.742Z,12.00
2018-07-25T17:29:09.961Z,13.93
2018-07-25T17:31:39.199Z,9.13
2018-07-25T17:34:08.439Z,14.93
2018-07-25T17:36:37.869Z,7.60
2018-07-25T17:39:09.724Z,14.40
2018-07-25T17:41:39.239Z,9.60
2018-07-25T17:44:08.688Z,8.33
2018-07-25T17:46:38.028Z,11.13
2018-07-25T17:49:06.895Z,8.27
2018-07-25T17:51:36.176Z,12.70
2018-07-25T17:54:05.442Z,8.43
2018-07-25T17:56:34.685Z,9.50
2018-07-25T17:59:03.997Z,10.77
2018-07-25T18:01:33.364Z,10.07
2018-07-25T18:04:02.684Z,9.93
2018-07-25T18:06:31.940Z,10.00
2018-07-25T18:09:01.173Z,9.23
2018-07-25T18:11:30.475Z,9.00
2018-07-25T18:14:05.030Z,11.03
2018-07-25T18:16:34.484Z,14.33
2018-07-25T18:19:03.985Z,8.30
2018-07-25T18:21:33.376Z,8.27
2018-07-25T18:24:02.810Z,8.37
2018-07-25T18:26:32.034Z,9.50
2018-07-25T18:29:01.376Z,9.50
2018-07-25T18:31:31.099Z,9.53
2018-07-25T18:34:00.441Z,7.27
2018-07-25T18:36:29.939Z,8.00
2018-07-25T18:39:00.040Z,7.30
2018-07-25T18:41:29.617Z,11.77
2018-07-25T18:43:59.226Z,8.13
2018-07-25T18:46:28.730Z,12.60
2018-07-25T18:48:58.245Z,8.20
2018-07-25T18:51:27.518Z,9.63
2018-07-25T18:53:56.777Z,7.50
2018-07-25T18:56:26.109Z,7.87
2018-07-25T18:58:55.452Z,11.23
2018-07-25T19:01:24.944Z,7.50
2018-07-25T19:03:54.110Z,7.33
2018-07-25T19:06:23.539Z,8.53
2018-07-25T19:08:53.064Z,7.77
2018-07-25T19:11:22.926Z,8.03
2018-07-25T19:13:57.344Z,8.03
2018-07-25T19:16:26.590Z,17.10
2018-07-25T19:18:56.148Z,7.30
2018-07-25T19:21:25.691Z,13.43
2018-07-25T19:23:55.087Z,9.00
2018-07-25T19:26:24.461Z,8.40
2018-07-25T19:28:53.956Z,9.33
2018-07-25T19:31:23.398Z,8.47
2018-07-25T19:33:52.919Z,9.73
2018-07-25T19:36:22.465Z,7.70
2018-07-25T19:38:51.889Z,8.83
2018-07-25T19:41:21.593Z,7.90
2018-07-25T19:43:51.206Z,7.47
2018-07-25T19:46:21.039Z,9.60
2018-07-25T19:48:50.412Z,9.90
2018-07-25T19:51:20.149Z,9.03
2018-07-25T19:53:49.642Z,7.97
2018-07-25T19:56:18.908Z,8.13
2018-07-25T19:58:48.550Z,9.60
2018-07-25T20:01:18.167Z,18.23
2018-07-25T20:03:47.450Z,8.23
2018-07-25T20:06:16.961Z,8.57
2018-07-25T20:11:14.839Z,8.03
2018-07-25T20:13:49.509Z,10.20
2018-07-25T20:16:18.415Z,8.27
2018-07-25T20:18:48.123Z,8.50
2018-07-25T20:21:17.786Z,11.27
2018-07-25T20:23:47.045Z,10.27
2018-07-25T20:26:16.296Z,8.03
2018-07-25T20:28:46.015Z,8.87
2018-07-25T20:31:15.466Z,12.30
2018-07-25T20:33:44.842Z,9.90
2018-07-25T20:36:14.340Z,8.40
2018-07-25T20:38:43.739Z,8.37
2018-07-25T20:41:13.066Z,12.33
2018-07-25T20:43:42.620Z,10.93
2018-07-25T20:46:12.393Z,11.40
2018-07-25T20:48:41.800Z,13.40
2018-07-25T20:51:11.329Z,11.73
2018-07-25T20:53:40.604Z,10.20
2018-07-25T20:56:10.979Z,8.80
2018-07-25T20:58:40.257Z,10.43
2018-07-25T21:01:09.909Z,9.40
2018-07-25T21:03:39.522Z,13.03
2018-07-25T21:06:09.108Z,9.83
2018-07-25T21:08:38.449Z,11.70
2018-07-25T21:11:08.030Z,11.63
2018-07-25T21:13:37.036Z,10.27
2018-07-25T21:16:06.459Z,12.33
2018-07-25T21:18:35.909Z,11.50
2018-07-25T21:21:05.255Z,10.23
2018-07-25T21:23:34.735Z,15.53
2018-07-25T21:26:04.182Z,12.67
2018-07-25T21:28:33.747Z,12.40
2018-07-25T21:31:03.220Z,12.17
2018-07-25T21:33:33.057Z,12.87
2018-07-25T21:36:02.581Z,11.57
2018-07-25T21:38:32.508Z,12.63
2018-07-25T21:41:01.832Z,13.07
2018-07-25T21:43:31.162Z,10.20
2018-07-25T21:46:00.668Z,15.60
2018-07-25T21:48:29.637Z,10.83
2018-07-25T21:50:59.017Z,9.20
2018-07-25T21:53:28.312Z,10.00
2018-07-25T21:55:57.598Z,11.13
2018-07-25T21:58:27.009Z,10.80
2018-07-25T22:01:00.342Z,13.20
2018-07-25T22:03:29.551Z,10.83
2018-07-25T22:05:58.740Z,10.97
2018-07-25T22:08:28.152Z,9.93
2018-07-25T22:10:57.504Z,15.17
2018-07-25T22:13:26.779Z,13.27
2018-07-25T22:15:55.981Z,10.70
2018-07-25T22:18:25.165Z,11.90
2018-07-25T22:20:54.472Z,11.40
2018-07-25T22:23:23.744Z,11.70
2018-07-25T22:25:53.048Z,11.63
2018-07-25T22:28:22.671Z,11.33
2018-07-25T22:30:51.875Z,12.47
2018-07-25T22:33:21.125Z,12.00
2018-07-25T22:35:50.338Z,11.00
2018-07-25T22:38:19.684Z,11.10
2018-07-25T22:40:48.940Z,12.93
2018-07-25T22:43:18.260Z,13.00
2018-07-25T22:45:47.510Z,11.17
2018-07-25T22:48:16.747Z,14.37
2018-07-25T22:50:46.017Z,13.00
2018-07-25T22:53:15.392Z,14.30
2018-07-25T22:55:44.616Z,11.20
2018-07-25T22:58:14.616Z,11.47
2018-07-25T23:00:43.836Z,12.10
2018-07-25T23:03:13.412Z,14.37
2018-07-25T23:05:42.628Z,13.97
2018-07-25T23:08:11.952Z,11.93
2018-07-25T23:10:41.187Z,15.53
2018-07-25T23:13:10.480Z,13.67
2018-07-25T23:15:39.792Z,11.70
2018-07-25T23:18:09.057Z,17.53
2018-07-25T23:20:38.508Z,15.50
2018-07-25T23:23:07.842Z,14.07
2018-07-25T23:25:37.486Z,12.20
2018-07-25T23:28:06.980Z,17.70
2018-07-25T23:30:36.529Z,12.93
2018-07-25T23:33:05.763Z,14.27
2018-07-25T23:35:35.088Z,16.80
2018-07-25T23:38:04.317Z,15.67
2018-07-25T23:40:33.715Z,12.47
2018-07-25T23:43:03.095Z,12.70
2018-07-25T23:45:32.475Z,14.93
2018-07-25T23:48:01.995Z,16.23
2018-07-25T23:50:31.420Z,16.43
2018-07-25T23:53:00.756Z,18.23
2018-07-25T23:55:30.151Z,13.90
2018-07-25T23:57:59.399Z,14.30
